Time;durP1;ratioP1;P1;durP2;ratioP2;P2;SDS_P1;SDS_P2;PMS_P1;PMS_P2;Temp;Humidity;BMP_temperature;BMP_pressure;BME280_temperature;BME280_humidity;BME280_pressure;Samples;Min_cycle;Max_cycle;Signal;HPM_P1;HPM_P2
2022/03/24 00:02:13;;;;;;;32.90;22.45;;;7.90;99.90;;;;;;5096912;28;20121;-72
2022/03/24 00:04:39;;;;;;;35.38;23.42;;;7.70;99.90;;;;;;5096370;28;20036;-71
2022/03/24 00:07:05;;;;;;;33.92;23.08;;;7.60;99.90;;;;;;5079066;28;20055;-71
2022/03/24 00:09:32;;;;;;;34.90;23.88;;;7.60;99.90;;;;;;5096774;28;20044;-71
2022/03/24 00:11:57;;;;;;;34.17;22.90;;;7.90;99.90;;;;;;5096848;28;20458;-72
2022/03/24 00:14:23;;;;;;;34.60;22.63;;;7.50;99.90;;;;;;5095513;28;20131;-72
2022/03/24 00:16:50;;;;;;;35.92;23.33;;;7.50;99.90;;;;;;5095480;28;20043;-72
2022/03/24 00:19:19;;;;;;;35.88;23.65;;;7.50;99.90;;;;;;5095713;28;20083;-72
2022/03/24 00:21:45;;;;;;;36.70;23.83;;;7.90;99.90;;;;;;5096587;28;20089;-71
2022/03/24 00:24:11;;;;;;;36.40;25.45;;;7.40;99.90;;;;;;5095435;28;20503;-72
2022/03/24 00:26:37;;;;;;;34.97;23.75;;;7.40;99.90;;;;;;5096486;28;20468;-71
2022/03/24 00:29:03;;;;;;;35.08;24.58;;;7.40;99.90;;;;;;5096407;28;20051;-71
2022/03/24 00:31:29;;;;;;;35.53;24.70;;;7.70;99.90;;;;;;5096972;28;20086;-72
2022/03/24 00:33:55;;;;;;;39.53;25.23;;;7.30;99.90;;;;;;5095427;28;20090;-71
2022/03/24 00:36:22;;;;;;;39.03;25.52;;;7.60;99.90;;;;;;5095773;28;20079;-72
2022/03/24 00:38:52;;;;;;;39.50;25.35;;;7.90;99.90;;;;;;5095368;28;20051;-72
2022/03/24 00:41:19;;;;;;;39.97;26.27;;;7.30;99.90;;;;;;5096252;28;20055;-72
2022/03/24 00:43:48;;;;;;;37.00;24.17;;;7.90;99.90;;;;;;5095220;28;20056;-72
2022/03/24 00:46:20;;;;;;;34.17;23.90;;;7.10;99.90;;;;;;5094911;28;20048;-72
2022/03/24 00:48:46;;;;;;;39.17;26.27;;;7.20;99.90;;;;;;5093891;28;20032;-72
2022/03/24 00:51:12;;;;;;;35.80;24.38;;;7.10;99.90;;;;;;5095918;28;20078;-72
2022/03/24 00:53:38;;;;;;;38.83;25.02;;;7.30;99.90;;;;;;5096119;28;20446;-72
2022/03/24 00:56:03;;;;;;;38.78;24.63;;;7.00;99.90;;;;;;5096012;28;20044;-72
2022/03/24 00:58:29;;;;;;;37.65;25.45;;;7.00;99.90;;;;;;5096035;28;20089;-72
2022/03/24 01:00:55;;;;;;;35.10;24.25;;;7.10;99.90;;;;;;5095749;28;20051;-72
2022/03/24 01:03:21;;;;;;;36.40;24.85;;;7.00;99.90;;;;;;5094947;28;20122;-72
2022/03/24 01:05:48;;;;;;;34.47;23.55;;;7.20;99.90;;;;;;5095174;28;20048;-72
2022/03/24 01:08:16;;;;;;;35.78;24.52;;;7.00;99.90;;;;;;5095736;28;20070;-72
2022/03/24 01:10:42;;;;;;;37.05;24.23;;;7.00;99.90;;;;;;5095720;28;20093;-72
2022/03/24 01:13:09;;;;;;;37.15;24.98;;;7.00;99.90;;;;;;5096244;28;20044;-72
2022/03/24 01:15:35;;;;;;;36.20;26.05;;;6.90;99.90;;;;;;5095559;28;20054;-72
2022/03/24 01:18:01;;;;;;;38.70;25.15;;;6.80;99.90;;;;;;5095550;28;20139;-72
2022/03/24 01:20:29;;;;;;;35.88;25.02;;;7.00;99.90;;;;;;5095197;28;20511;-72
2022/03/24 01:22:55;;;;;;;36.88;24.95;;;6.90;99.90;;;;;;5095484;28;20048;-72
2022/03/24 01:25:23;;;;;;;40.00;25.40;;;6.80;99.90;;;;;;5077924;28;20071;-72
2022/03/24 01:27:51;;;;;;;39.25;25.85;;;6.80;99.90;;;;;;5094152;28;20048;-72
2022/03/24 01:30:17;;;;;;;38.83;25.20;;;6.90;99.90;;;;;;5095227;28;20503;-72
2022/03/24 01:32:45;;;;;;;37.80;25.75;;;6.70;99.90;;;;;;5095255;28;20059;-72
2022/03/24 01:35:11;;;;;;;34.50;24.73;;;6.90;99.90;;;;;;5093706;28;20052;-72
2022/03/24 01:37:37;;;;;;;38.08;25.60;;;6.60;99.90;;;;;;5095171;28;20052;-72
2022/03/24 01:40:06;;;;;;;39.03;26.23;;;6.50;99.90;;;;;;5095170;28;20051;-72
2022/03/24 01:42:34;;;;;;;37.60;25.42;;;6.50;99.90;;;;;;5095060;28;20093;-72
2022/03/24 01:45:00;;;;;;;38.92;25.40;;;6.50;99.90;;;;;;5095040;28;20059;-72
2022/03/24 01:47:26;;;;;;;38.38;25.23;;;6.70;99.90;;;;;;5095759;28;20062;-72
2022/03/24 01:49:53;;;;;;;41.22;26.13;;;6.60;99.90;;;;;;5093749;28;20131;-72
2022/03/24 01:52:19;;;;;;;36.35;25.25;;;6.70;99.90;;;;;;5093453;28;20391;-72
2022/03/24 01:54:51;;;;;;;37.83;24.40;;;6.70;99.90;;;;;;5095407;28;20043;-72
2022/03/24 01:57:17;;;;;;;39.42;25.67;;;6.90;99.90;;;;;;5094920;28;20087;-72
2022/03/24 01:59:43;;;;;;;39.22;25.90;;;6.30;99.90;;;;;;5094690;28;20044;-71
2022/03/24 02:02:10;;;;;;;40.70;26.10;;;6.50;99.90;;;;;;5095138;28;20472;-72
2022/03/24 02:04:36;;;;;;;37.65;25.45;;;6.60;99.90;;;;;;5093114;28;20078;-71
2022/03/24 02:07:06;;;;;;;42.47;27.63;;;6.40;99.90;;;;;;5094839;28;20052;-72
2022/03/24 02:09:33;;;;;;;40.33;26.55;;;6.40;99.90;;;;;;5094515;28;20044;-72
2022/03/24 02:12:01;;;;;;;42.67;26.75;;;6.50;99.90;;;;;;5094505;28;20055;-72
2022/03/24 02:14:29;;;;;;;41.13;27.30;;;6.20;99.90;;;;;;5093313;28;20055;-72
2022/03/24 02:16:55;;;;;;;38.55;26.60;;;6.30;99.90;;;;;;5094591;28;20060;-72
2022/03/24 02:19:24;;;;;;;39.90;25.65;;;6.60;99.90;;;;;;5093267;28;20056;-72
2022/03/24 02:21:53;;;;;;;42.92;27.95;;;6.70;99.90;;;;;;5094385;28;20052;-72
2022/03/24 02:24:21;;;;;;;39.95;26.38;;;6.20;99.90;;;;;;5094367;28;20048;-71
2022/03/24 02:26:48;;;;;;;39.88;25.38;;;6.40;99.90;;;;;;5093088;28;20052;-72
2022/03/24 02:29:16;;;;;;;40.20;27.10;;;6.70;99.90;;;;;;5094252;28;20070;-72
2022/03/24 02:31:50;;;;;;;41.03;26.45;;;6.40;99.90;;;;;;5094174;28;20049;-71
2022/03/24 02:34:37;;;;;;;43.33;27.35;;;6.50;99.90;;;;;;5092503;28;20125;-70
2022/03/24 02:37:19;;;;;;;44.10;27.98;;;6.30;99.90;;;;;;5094223;28;20044;-71
2022/03/24 02:39:47;;;;;;;43.65;28.38;;;6.10;99.90;;;;;;5094199;28;20048;-71
2022/03/24 02:42:16;;;;;;;39.50;26.35;;;6.10;99.90;;;;;;5093184;28;20052;-71
2022/03/24 02:44:44;;;;;;;43.80;28.08;;;6.30;99.90;;;;;;5094017;28;20387;-71
2022/03/24 02:47:11;;;;;;;41.78;27.60;;;6.30;99.90;;;;;;5094175;28;20048;-71
2022/03/24 02:49:38;;;;;;;44.47;28.73;;;6.30;99.90;;;;;;5092760;28;20199;-71
2022/03/24 02:52:04;;;;;;;46.80;29.17;;;6.10;99.90;;;;;;5092189;28;20113;-72
2022/03/24 02:54:31;;;;;;;47.83;30.38;;;6.10;99.90;;;;;;5092917;28;20097;-72
2022/03/24 02:56:58;;;;;;;50.75;31.70;;;6.00;99.90;;;;;;5076014;28;20131;-72
2022/03/24 02:59:24;;;;;;;44.45;29.35;;;6.70;99.90;;;;;;5093790;28;20344;-72
2022/03/24 03:02:00;;;;;;;51.03;31.42;;;6.00;99.90;;;;;;5092819;28;20101;-71
2022/03/24 03:04:27;;;;;;;48.95;31.38;;;6.00;99.90;;;;;;5093305;28;20047;-71
2022/03/24 03:06:56;;;;;;;50.88;32.47;;;6.30;99.90;;;;;;5092557;28;20051;-72
2022/03/24 03:09:22;;;;;;;47.78;30.10;;;6.20;99.90;;;;;;5092372;28;20066;-71
2022/03/24 03:11:50;;;;;;;48.35;31.52;;;6.20;99.90;;;;;;5093364;28;20083;-72
2022/03/24 03:14:17;;;;;;;45.97;29.90;;;6.20;99.90;;;;;;5075496;28;20058;-72
2022/03/24 03:16:44;;;;;;;45.45;29.73;;;5.90;99.90;;;;;;5093298;28;20530;-71
2022/03/24 03:19:15;;;;;;;49.35;30.40;;;6.00;99.90;;;;;;5093561;28;20040;-71
2022/03/24 03:21:41;;;;;;;49.65;29.98;;;5.80;99.90;;;;;;5093744;28;20091;-71
2022/03/24 03:24:09;;;;;;;45.05;29.83;;;5.80;99.90;;;;;;5093594;28;20044;-71
2022/03/24 03:26:35;;;;;;;45.50;30.45;;;5.90;99.90;;;;;;5092309;28;20055;-71
2022/03/24 03:29:01;;;;;;;48.28;30.27;;;6.70;99.90;;;;;;5092207;28;20092;-71
2022/03/24 03:31:28;;;;;;;51.67;32.95;;;5.80;99.90;;;;;;5093394;28;20059;-72
2022/03/24 03:33:54;;;;;;;47.88;31.40;;;5.80;99.90;;;;;;5093406;28;20048;-71
2022/03/24 03:36:22;;;;;;;48.88;31.70;;;5.80;99.90;;;;;;5091746;28;20088;-71
2022/03/24 03:38:48;;;;;;;49.47;31.60;;;5.90;99.90;;;;;;5093580;28;20036;-71
2022/03/24 03:41:16;;;;;;;51.35;32.90;;;5.70;99.90;;;;;;5092715;28;20048;-72
2022/03/24 03:43:43;;;;;;;47.47;30.42;;;6.00;99.90;;;;;;5093345;28;20078;-71
2022/03/24 03:46:09;;;;;;;45.55;29.67;;;5.60;99.90;;;;;;5093125;28;20488;-71
2022/03/24 03:48:38;;;;;;;44.85;29.42;;;5.80;99.90;;;;;;5093270;28;20033;-71
2022/03/24 03:51:06;;;;;;;45.53;29.60;;;5.90;99.90;;;;;;5093057;28;20117;-71
2022/03/24 03:53:33;;;;;;;46.40;29.77;;;6.40;99.90;;;;;;5093278;28;20044;-71
2022/03/24 03:55:59;;;;;;;47.03;29.27;;;5.70;99.90;;;;;;5093221;28;20058;-71
2022/03/24 03:58:25;;;;;;;45.72;29.60;;;6.00;99.90;;;;;;5092014;28;20052;-71
2022/03/24 04:00:56;;;;;;;44.08;29.85;;;5.70;99.90;;;;;;5092849;28;20548;-72
2022/03/24 04:03:26;;;;;;;49.03;30.73;;;5.70;99.90;;;;;;5093445;28;20101;-71
2022/03/24 04:05:53;;;;;;;44.72;29.02;;;5.80;99.90;;;;;;5092578;28;20044;-71
2022/03/24 04:08:20;;;;;;;46.78;30.00;;;5.50;99.90;;;;;;5091822;28;20052;-71
2022/03/24 04:10:48;;;;;;;46.45;28.67;;;5.70;99.90;;;;;;5075495;28;20090;-71
2022/03/24 04:13:14;;;;;;;45.97;29.60;;;5.50;99.90;;;;;;5091846;28;20468;-72
2022/03/24 04:15:40;;;;;;;46.80;30.40;;;5.80;99.90;;;;;;5091821;28;20101;-72
2022/03/24 04:18:06;;;;;;;47.63;30.95;;;5.70;99.90;;;;;;5093039;28;20048;-71
2022/03/24 04:20:34;;;;;;;47.83;31.27;;;5.70;99.90;;;;;;5091798;28;20040;-72
2022/03/24 04:23:01;;;;;;;48.85;30.42;;;5.70;99.90;;;;;;5092073;28;20400;-71
2022/03/24 04:25:28;;;;;;;49.90;31.58;;;6.10;99.90;;;;;;5095784;28;20043;-71
2022/03/24 04:27:54;;;;;;;48.05;31.10;;;5.20;99.90;;;;;;5096524;28;20051;-71
2022/03/24 04:30:21;;;;;;;49.53;31.50;;;5.50;99.90;;;;;;5095278;28;20032;-71
2022/03/24 04:32:48;;;;;;;52.95;32.40;;;5.40;99.90;;;;;;5096276;28;20404;-71
2022/03/24 04:35:15;;;;;;;47.10;29.95;;;5.60;99.90;;;;;;5095976;28;20041;-71
2022/03/24 04:37:41;;;;;;;50.03;32.30;;;5.60;99.90;;;;;;5096728;28;20048;-71
2022/03/24 04:40:07;;;;;;;49.45;32.78;;;5.70;99.90;;;;;;5096398;28;20036;-72
2022/03/24 04:42:34;;;;;;;50.30;32.17;;;5.40;99.90;;;;;;5096370;28;20050;-71
2022/03/24 04:45:00;;;;;;;50.60;31.95;;;5.40;99.90;;;;;;5078453;28;20047;-72
2022/03/24 04:47:26;;;;;;;49.92;32.10;;;5.80;99.90;;;;;;5096218;28;20040;-72
2022/03/24 04:49:52;;;;;;;51.35;31.50;;;5.80;99.90;;;;;;5095020;28;20040;-72
2022/03/24 04:52:19;;;;;;;50.17;31.80;;;6.10;99.90;;;;;;5095644;28;20507;-71
2022/03/24 04:54:45;;;;;;;51.67;33.28;;;5.40;99.90;;;;;;5096034;28;20484;-72
2022/03/24 04:57:11;;;;;;;55.38;34.88;;;5.90;99.90;;;;;;5096049;28;20048;-72
2022/03/24 04:59:37;;;;;;;57.30;36.15;;;5.20;99.90;;;;;;5095982;28;20468;-72
2022/03/24 05:02:03;;;;;;;55.45;36.17;;;5.50;99.90;;;;;;5095912;28;20044;-71
2022/03/24 05:04:28;;;;;;;54.25;35.50;;;5.30;99.90;;;;;;5095238;28;20071;-70
2022/03/24 05:06:54;;;;;;;53.60;33.28;;;6.10;99.90;;;;;;5095757;28;20138;-71
2022/03/24 05:09:20;;;;;;;51.05;31.83;;;5.70;99.90;;;;;;5095783;28;20048;-71
2022/03/24 05:11:46;;;;;;;51.00;31.55;;;5.10;99.90;;;;;;5094563;28;20044;-71
2022/03/24 05:14:12;;;;;;;50.42;32.25;;;5.60;99.90;;;;;;5094636;28;20048;-71
2022/03/24 05:16:38;;;;;;;47.85;31.52;;;5.00;99.90;;;;;;5095619;28;20044;-72
2022/03/24 05:19:05;;;;;;;52.90;33.10;;;5.30;99.90;;;;;;5094088;28;20555;-71
2022/03/24 05:21:32;;;;;;;47.15;31.25;;;5.00;99.90;;;;;;5077639;28;20044;-71
2022/03/24 05:23:59;;;;;;;49.58;31.08;;;5.10;99.90;;;;;;5095773;28;20040;-71
2022/03/24 05:26:25;;;;;;;47.92;30.30;;;5.70;99.90;;;;;;5095758;28;20048;-71
2022/03/24 05:28:51;;;;;;;52.33;32.60;;;5.40;99.90;;;;;;5094312;28;20486;-72
2022/03/24 05:31:18;;;;;;;48.75;31.80;;;5.60;99.90;;;;;;5094592;28;20139;-71
2022/03/24 05:33:47;;;;;;;54.33;33.00;;;5.20;99.90;;;;;;5095278;28;20083;-71
2022/03/24 05:36:14;;;;;;;49.97;32.67;;;6.30;99.90;;;;;;5094299;28;20043;-71
2022/03/24 05:38:40;;;;;;;51.97;32.83;;;5.20;99.90;;;;;;5095156;28;20090;-71
2022/03/24 05:41:05;;;;;;;51.00;32.40;;;5.20;99.90;;;;;;5095080;28;20044;-71
2022/03/24 05:43:32;;;;;;;50.78;32.60;;;5.30;99.90;;;;;;5095126;28;20079;-71
2022/03/24 05:45:58;;;;;;;49.65;31.48;;;5.80;99.90;;;;;;5095064;28;20047;-71
2022/03/24 05:48:24;;;;;;;49.90;31.90;;;5.10;99.90;;;;;;5093971;28;20380;-72
2022/03/24 05:50:50;;;;;;;49.92;31.77;;;5.10;99.90;;;;;;5093490;28;20123;-71
2022/03/24 05:53:16;;;;;;;52.33;32.15;;;5.10;99.90;;;;;;5094924;28;20059;-72
2022/03/24 05:55:43;;;;;;;53.53;34.17;;;4.90;99.90;;;;;;5094508;28;20123;-71
2022/03/24 05:58:08;;;;;;;52.92;30.75;;;5.10;99.90;;;;;;5093983;28;20044;-72
2022/03/24 06:00:40;;;;;;;49.65;31.30;;;5.00;99.90;;;;;;5094027;28;20495;-71
2022/03/24 06:03:07;;;;;;;47.40;32.03;;;5.20;99.90;;;;;;5094721;28;20142;-72
2022/03/24 06:05:33;;;;;;;49.80;31.92;;;5.40;99.90;;;;;;5094066;28;20051;-71
2022/03/24 06:08:00;;;;;;;54.00;34.22;;;5.60;99.90;;;;;;5094310;28;20056;-71
2022/03/24 06:10:27;;;;;;;55.05;33.08;;;5.60;99.90;;;;;;5094523;28;20048;-71
2022/03/24 06:12:53;;;;;;;53.40;33.00;;;5.00;99.90;;;;;;5094198;28;20075;-71
2022/03/24 06:15:19;;;;;;;53.40;34.00;;;5.10;99.90;;;;;;5093274;28;20125;-71
2022/03/24 06:17:45;;;;;;;51.28;32.67;;;5.00;99.90;;;;;;5093310;28;20040;-72
2022/03/24 06:20:11;;;;;;;49.13;31.58;;;5.10;99.90;;;;;;5093591;28;20050;-72
2022/03/24 06:22:55;;;;;;;54.97;33.35;;;5.10;99.90;;;;;;5094352;28;20054;-73
2022/03/24 06:25:22;;;;;;;52.78;33.90;;;5.40;99.90;;;;;;5093150;28;20051;-71
2022/03/24 06:27:50;;;;;;;54.97;33.72;;;5.20;99.90;;;;;;5093971;28;20507;-71
2022/03/24 06:30:16;;;;;;;55.28;32.70;;;5.70;99.90;;;;;;5093905;28;20480;-71
2022/03/24 06:32:42;;;;;;;53.53;33.55;;;5.30;99.90;;;;;;5076498;28;20070;-72
2022/03/24 06:35:08;;;;;;;54.10;34.17;;;5.50;99.90;;;;;;5093643;28;20055;-71
2022/03/24 06:37:40;;;;;;;56.92;34.30;;;5.40;99.90;;;;;;5094710;28;20040;-71
2022/03/24 06:40:14;;;;;;;52.42;33.85;;;5.50;99.90;;;;;;5094199;28;20097;-71
2022/03/24 06:42:41;;;;;;;52.67;34.45;;;5.50;99.90;;;;;;5092107;28;20510;-71
2022/03/24 06:45:08;;;;;;;55.25;33.58;;;6.20;99.90;;;;;;5094157;28;20553;-71
2022/03/24 06:47:34;;;;;;;52.28;33.72;;;5.60;99.90;;;;;;5093265;28;20044;-71
2022/03/24 06:50:00;;;;;;;52.35;32.88;;;5.70;99.90;;;;;;5093036;28;20044;-72
2022/03/24 06:52:25;;;;;;;51.80;32.83;;;5.70;99.90;;;;;;5092350;28;20054;-72
2022/03/24 06:54:51;;;;;;;52.13;33.70;;;6.10;99.90;;;;;;5092978;28;20395;-72
2022/03/24 06:57:17;;;;;;;52.05;34.75;;;6.20;99.90;;;;;;5094014;28;20063;-72
2022/03/24 06:59:43;;;;;;;56.05;34.53;;;6.20;99.90;;;;;;5093880;28;20380;-71
2022/03/24 07:02:09;;;;;;;49.08;32.40;;;6.10;99.90;;;;;;5092884;28;20044;-73
2022/03/24 07:04:36;;;;;;;47.83;31.95;;;6.20;99.90;;;;;;5092429;28;20488;-70
2022/03/24 07:07:03;;;;;;;48.08;31.27;;;6.90;99.90;;;;;;5093880;28;20392;-71
2022/03/24 07:09:29;;;;;;;51.40;31.85;;;6.30;99.90;;;;;;5076259;28;20050;-71
2022/03/24 07:11:55;;;;;;;52.45;32.83;;;6.60;99.90;;;;;;5093821;28;20044;-73
2022/03/24 07:14:22;;;;;;;43.55;29.65;;;6.60;99.90;;;;;;5093405;28;20523;-71
2022/03/24 07:16:47;;;;;;;50.75;32.67;;;6.50;99.90;;;;;;5093734;28;20044;-71
2022/03/24 07:19:14;;;;;;;49.83;30.95;;;6.60;99.90;;;;;;5093694;28;20119;-71
2022/03/24 07:21:40;;;;;;;49.55;30.60;;;6.90;99.90;;;;;;5076419;28;20044;-71
2022/03/24 07:24:05;;;;;;;52.78;32.38;;;6.90;99.90;;;;;;5093640;28;20044;-71
2022/03/24 07:26:31;;;;;;;47.80;28.60;;;7.00;99.90;;;;;;5093866;28;20442;-71
2022/03/24 07:28:57;;;;;;;47.22;30.15;;;6.90;99.90;;;;;;5093427;28;20079;-72
2022/03/24 07:31:23;;;;;;;41.58;29.35;;;7.20;99.90;;;;;;5092501;28;20040;-72
2022/03/24 07:33:51;;;;;;;50.00;31.05;;;7.30;99.90;;;;;;5093600;28;20044;-72
2022/03/24 07:36:22;;;;;;;44.80;29.60;;;7.20;99.90;;;;;;5092917;28;20083;-72
2022/03/24 07:38:52;;;;;;;48.40;30.60;;;7.20;99.90;;;;;;5093933;28;20044;-71
2022/03/24 07:41:17;;;;;;;47.10;30.17;;;7.30;99.90;;;;;;5093584;28;20056;-68
2022/03/24 07:43:44;;;;;;;45.00;29.58;;;7.30;99.90;;;;;;5093823;28;20487;-71
2022/03/24 07:46:10;;;;;;;42.08;27.85;;;7.40;99.90;;;;;;5092366;28;20048;-71
2022/03/24 07:48:38;;;;;;;46.80;29.10;;;7.40;99.90;;;;;;5093408;28;20123;-70
2022/03/24 07:51:07;;;;;;;44.40;27.50;;;7.50;99.90;;;;;;5093402;28;20044;-72
2022/03/24 07:53:48;;;;;;;44.03;28.40;;;7.70;99.90;;;;;;5092109;28;20080;-72
2022/03/24 07:56:16;;;;;;;43.83;27.20;;;7.90;99.90;;;;;;5093854;28;20056;-72
2022/03/24 07:58:41;;;;;;;42.80;26.00;;;7.90;99.90;;;;;;5094949;28;20134;-70
2022/03/24 08:01:07;;;;;;;40.67;26.55;;;8.00;99.90;;;;;;5096177;28;20138;-70
2022/03/24 08:03:34;;;;;;;43.55;25.92;;;7.90;99.90;;;;;;5096953;28;20036;-69
2022/03/24 08:06:01;;;;;;;42.75;25.08;;;8.00;99.90;;;;;;5096694;28;20044;-70
2022/03/24 08:08:26;;;;;;;38.67;23.77;;;8.00;99.90;;;;;;5097314;28;20055;-70
2022/03/24 08:10:53;;;;;;;39.83;24.10;;;8.10;99.90;;;;;;5095882;28;20468;-70
2022/03/24 08:13:20;;;;;;;39.42;25.23;;;8.50;99.90;;;;;;5096624;28;20388;-70
2022/03/24 08:15:47;;;;;;;38.97;23.90;;;8.40;99.90;;;;;;5096915;28;20048;-70
2022/03/24 08:18:14;;;;;;;35.83;23.83;;;8.60;99.90;;;;;;5096289;28;20411;-71
2022/03/24 08:20:42;;;;;;;37.60;24.33;;;8.60;99.90;;;;;;5096927;28;20429;-70
2022/03/24 08:23:09;;;;;;;39.55;23.88;;;8.70;99.90;;;;;;5096889;28;20083;-71
2022/03/24 08:25:36;;;;;;;37.08;24.60;;;8.90;99.90;;;;;;5096753;28;20174;-70
2022/03/24 08:28:02;;;;;;;37.80;23.92;;;8.80;99.90;;;;;;5096711;28;20165;-74
2022/03/24 08:30:28;;;;;;;36.80;22.73;;;8.90;99.90;;;;;;5075629;28;20382;-75
2022/03/24 08:32:54;;;;;;;40.30;25.13;;;9.00;99.90;;;;;;5095843;28;20078;-74
2022/03/24 08:35:20;;;;;;;39.92;24.75;;;9.00;99.90;;;;;;5093589;28;20040;-73
2022/03/24 08:37:46;;;;;;;35.50;23.63;;;9.10;99.90;;;;;;5096007;28;20079;-74
2022/03/24 08:40:13;;;;;;;38.45;23.60;;;9.20;99.90;;;;;;5095051;28;20051;-74
2022/03/24 08:42:40;;;;;;;39.28;25.02;;;9.20;99.90;;;;;;5096038;28;20072;-74
2022/03/24 08:45:08;;;;;;;38.85;23.77;;;9.30;99.90;;;;;;5096082;28;20050;-74
2022/03/24 08:47:35;;;;;;;38.22;23.58;;;9.40;99.90;;;;;;5095866;28;20404;-72
2022/03/24 08:50:01;;;;;;;35.80;23.02;;;9.40;99.90;;;;;;5095765;28;20044;-75
2022/03/24 08:52:27;;;;;;;32.05;21.38;;;9.60;99.90;;;;;;5095714;28;20078;-75
2022/03/24 08:54:54;;;;;;;38.67;23.15;;;9.50;99.90;;;;;;5077969;28;20105;-74
2022/03/24 08:57:26;;;;;;;37.97;23.00;;;9.60;99.90;;;;;;5095800;28;20054;-75
2022/03/24 08:59:56;;;;;;;35.88;23.92;;;9.60;99.90;;;;;;5095745;28;20637;-75
2022/03/24 09:02:22;;;;;;;32.97;22.00;;;9.70;99.90;;;;;;5117896;27;20480;-74
2022/03/24 09:04:48;;;;;;;33.85;23.20;;;9.80;99.90;;;;;;5089444;28;20286;-73
2022/03/24 09:07:15;;;;;;;35.78;21.38;;;9.80;99.90;;;;;;5085483;28;20100;-72
2022/03/24 09:09:42;;;;;;;33.25;20.92;;;9.90;99.90;;;;;;5065798;28;20041;-72
2022/03/24 09:12:12;;;;;;;34.75;21.38;;;10.10;99.90;;;;;;5085761;28;20076;-72
2022/03/24 09:14:39;;;;;;;31.83;21.15;;;10.30;99.90;;;;;;5089207;28;20044;-72
2022/03/24 09:17:05;;;;;;;34.90;20.92;;;10.50;99.90;;;;;;5089129;28;20055;-72
2022/03/24 09:19:32;;;;;;;32.00;21.60;;;10.60;99.90;;;;;;5081563;28;20044;-72
2022/03/24 09:21:59;;;;;;;33.40;21.55;;;10.70;99.90;;;;;;5076685;28;20116;-72
2022/03/24 09:24:26;;;;;;;34.25;21.40;;;10.80;99.90;;;;;;5115202;27;20476;-72
2022/03/24 09:26:53;;;;;;;30.83;19.23;;;10.80;99.90;;;;;;5069197;28;20393;-72
2022/03/24 09:29:19;;;;;;;32.00;20.35;;;10.50;99.90;;;;;;5089612;28;20036;-72
2022/03/24 09:31:47;;;;;;;35.67;21.58;;;10.90;99.90;;;;;;5081584;28;20119;-72
2022/03/24 09:34:13;;;;;;;34.75;22.92;;;10.90;99.90;;;;;;5113106;27;20044;-72
2022/03/24 09:36:39;;;;;;;34.90;21.88;;;11.10;99.90;;;;;;5086293;28;20047;-72
2022/03/24 09:39:05;;;;;;;42.42;23.50;;;11.10;99.90;;;;;;5090058;28;20115;-72
2022/03/24 09:41:31;;;;;;;36.58;22.75;;;11.10;99.90;;;;;;5077812;28;20131;-73
2022/03/24 09:43:58;;;;;;;37.33;22.67;;;11.20;99.90;;;;;;5081458;28;20105;-72
2022/03/24 09:46:27;;;;;;;35.05;23.02;;;11.20;99.90;;;;;;5083255;28;20078;-73
2022/03/24 09:48:53;;;;;;;34.40;23.13;;;11.20;99.90;;;;;;5080035;28;20057;-73
2022/03/24 09:51:24;;;;;;;40.30;23.42;;;11.30;99.90;;;;;;5087925;28;20079;-72
2022/03/24 09:53:50;;;;;;;34.83;21.63;;;11.30;99.90;;;;;;5083811;28;20052;-72
2022/03/24 09:56:17;;;;;;;38.50;22.67;;;11.50;99.90;;;;;;5068403;28;20055;-73
2022/03/24 09:58:44;;;;;;;36.65;23.08;;;11.10;99.90;;;;;;5085358;28;20097;-73
2022/03/24 10:01:13;;;;;;;40.03;22.25;;;11.80;99.90;;;;;;5085319;28;20064;-73
2022/03/24 10:03:39;;;;;;;34.40;21.55;;;11.70;99.90;;;;;;5069778;28;20086;-73
2022/03/24 10:06:07;;;;;;;36.75;22.58;;;11.80;99.90;;;;;;5086452;28;20472;-73
2022/03/24 10:08:35;;;;;;;37.35;24.38;;;11.80;99.90;;;;;;5083130;28;20502;-72
2022/03/24 10:11:03;;;;;;;36.88;23.27;;;12.00;99.90;;;;;;5080894;28;20052;-73
2022/03/24 10:13:46;;;;;;;35.03;22.77;;;12.00;99.90;;;;;;5088313;28;20070;-72
2022/03/24 10:16:40;;;;;;;36.53;21.05;;;12.10;99.90;;;;;;5083354;28;20604;-73
2022/03/24 10:19:07;;;;;;;;;;;12.10;99.90;;;;;;5068649;28;20056;-73
2022/03/24 10:21:35;;;;;;;35.15;22.27;;;12.20;99.90;;;;;;5079888;28;20011;-73
2022/03/24 10:24:12;;;;;;;34.05;21.45;;;12.20;99.90;;;;;;5088082;28;20044;-73
2022/03/24 10:26:42;;;;;;;38.30;23.70;;;12.20;99.90;;;;;;5079336;28;20434;-72
2022/03/24 10:29:10;;;;;;;37.22;22.92;;;12.30;99.90;;;;;;5077605;28;20494;-72
2022/03/24 10:31:37;;;;;;;39.42;23.85;;;12.40;99.90;;;;;;5076539;28;20135;-73
2022/03/24 10:34:04;;;;;;;35.55;23.77;;;12.40;99.90;;;;;;5080971;28;20105;-73
2022/03/24 10:36:33;;;;;;;34.95;22.73;;;12.20;99.90;;;;;;5075957;28;20052;-73
2022/03/24 10:39:04;;;;;;;34.40;22.63;;;12.50;99.90;;;;;;5074770;28;20055;-73
2022/03/24 10:41:35;;;;;;;39.22;23.55;;;12.60;99.90;;;;;;5080827;28;20040;-73
2022/03/24 10:44:07;;;;;;;34.92;23.02;;;12.60;99.90;;;;;;5075880;28;20236;-73
2022/03/24 10:46:36;;;;;;;40.15;23.45;;;12.70;99.90;;;;;;5084022;28;20197;-73
2022/03/24 10:49:23;;;;;;;39.03;23.35;;;12.80;99.90;;;;;;5094012;28;20044;-73
2022/03/24 10:51:51;;;;;;;36.05;24.45;;;12.80;99.90;;;;;;5082221;28;20076;-73
2022/03/24 10:54:37;;;;;;;36.75;24.27;;;12.90;99.90;;;;;;5061451;28;20514;-74
2022/03/24 10:57:13;;;;;;;38.13;23.83;;;13.00;99.90;;;;;;5078935;28;20626;-73
2022/03/24 10:59:46;;;;;;;37.35;24.60;;;13.10;99.90;;;;;;5080013;28;20298;-72
2022/03/24 11:02:14;;;;;;;40.90;23.52;;;13.10;99.90;;;;;;5080170;28;20036;-73
2022/03/24 11:04:41;;;;;;;35.88;22.52;;;13.20;99.90;;;;;;5082956;28;20040;-72
2022/03/24 11:07:07;;;;;;;39.78;23.70;;;13.30;99.90;;;;;;5084620;28;20059;-72
2022/03/24 11:09:34;;;;;;;39.55;23.20;;;13.30;99.90;;;;;;5084053;28;20040;-74
2022/03/24 11:12:38;;;;;;;32.40;22.73;;;13.40;99.90;;;;;;5082462;28;20105;-73
2022/03/24 11:15:07;;;;;;;42.28;28.70;;;13.40;99.90;;;;;;5081316;28;20052;-73
2022/03/24 11:17:36;;;;;;;38.33;23.15;;;13.50;99.90;;;;;;5080587;28;20044;-74
2022/03/24 11:20:04;;;;;;;36.65;21.35;;;13.60;99.60;;;;;;5079439;28;20049;-75
2022/03/24 11:22:53;;;;;;;35.72;22.08;;;13.70;99.20;;;;;;5082037;28;20047;-74
2022/03/24 11:25:20;;;;;;;33.53;21.40;;;13.70;99.30;;;;;;5082292;28;20048;-73
2022/03/24 11:27:48;;;;;;;34.33;21.92;;;13.70;99.00;;;;;;5079932;28;20784;-74
2022/03/24 11:30:15;;;;;;;36.38;21.08;;;13.70;98.60;;;;;;5082868;28;20055;-74
2022/03/24 11:32:44;;;;;;;30.70;19.58;;;13.80;97.80;;;;;;5063789;28;20044;-73
2022/03/24 11:35:11;;;;;;;32.28;19.63;;;13.80;96.70;;;;;;5081850;28;20092;-75
2022/03/24 11:37:37;;;;;;;30.65;18.83;;;13.90;96.30;;;;;;5084028;28;20051;-73
2022/03/24 11:40:14;;;;;;;33.03;21.08;;;13.80;95.10;;;;;;5087534;28;20036;-74
2022/03/24 11:42:53;;;;;;;35.58;22.23;;;14.00;95.20;;;;;;5083812;28;20067;-73
2022/03/24 11:45:32;;;;;;;33.88;21.30;;;14.00;94.70;;;;;;5113929;27;20048;-73
2022/03/24 11:48:08;;;;;;;30.95;20.13;;;14.00;94.30;;;;;;5088045;28;20044;-75
2022/03/24 11:50:45;;;;;;;35.38;22.85;;;14.10;94.00;;;;;;5086409;28;20143;-74
2022/03/24 11:53:15;;;;;;;31.30;20.13;;;14.20;93.80;;;;;;5086917;28;20060;-74
2022/03/24 11:55:59;;;;;;;34.22;20.35;;;14.30;93.40;;;;;;5084705;28;20058;-74
2022/03/24 11:58:32;;;;;;;34.05;19.85;;;14.30;92.90;;;;;;5093257;28;20044;-74
2022/03/24 12:01:18;;;;;;;31.80;21.45;;;14.40;92.40;;;;;;5088025;28;20185;-74
2022/03/24 12:03:48;;;;;;;32.38;19.63;;;14.40;92.20;;;;;;5082790;28;20063;-74
2022/03/24 12:06:19;;;;;;;31.20;20.13;;;14.40;91.30;;;;;;5065075;28;20040;-75
2022/03/24 12:08:47;;;;;;;30.55;19.73;;;14.40;91.00;;;;;;5085629;28;20055;-75
2022/03/24 12:11:33;;;;;;;35.13;20.33;;;14.40;90.60;;;;;;5085008;28;20039;-74
2022/03/24 12:14:00;;;;;;;32.08;20.77;;;14.30;90.80;;;;;;5087927;28;20344;-74
2022/03/24 12:16:27;;;;;;;31.98;20.02;;;14.60;90.30;;;;;;5082998;28;20044;-74
2022/03/24 12:18:53;;;;;;;31.05;20.45;;;14.60;90.10;;;;;;5089568;28;20048;-75
2022/03/24 12:21:24;;;;;;;32.63;21.08;;;14.70;89.80;;;;;;5085059;28;20525;-74
2022/03/24 12:24:05;;;;;;;32.40;19.75;;;14.70;88.90;;;;;;5085030;28;20080;-74
2022/03/24 12:26:36;;;;;;;32.72;21.77;;;14.80;87.50;;;;;;5084534;28;20044;-74
2022/03/24 12:29:25;;;;;;;33.33;22.33;;;15.00;87.20;;;;;;5084811;28;20047;-72
2022/03/24 12:32:09;;;;;;;35.08;21.35;;;15.00;84.50;;;;;;5051769;28;20273;-73
2022/03/24 12:34:38;;;;;;;34.97;21.38;;;15.00;86.60;;;;;;5083674;28;20541;-73
2022/03/24 12:37:27;;;;;;;34.45;21.98;;;15.10;85.60;;;;;;5093659;28;20082;-76
2022/03/24 12:40:09;;;;;;;34.97;20.38;;;15.10;84.30;;;;;;5077117;28;20044;-74
2022/03/24 12:42:42;;;;;;;35.95;22.63;;;15.20;84.50;;;;;;5120207;27;20455;-76